sensor_id;sensor_type;location;lat;lon;timestamp;P1;durP1;ratioP1;P2;durP2;ratioP2
20209;SDS011;10264;53.178;5.840;2022-09-13T00:02:00;33.13;;;25.57;;
20209;SDS011;10264;53.178;5.840;2022-09-13T00:04:26;36.63;;;27.40;;
20209;SDS011;10264;53.178;5.840;2022-09-13T00:06:53;39.20;;;28.33;;
20209;SDS011;10264;53.178;5.840;2022-09-13T00:09:19;41.87;;;30.13;;
20209;SDS011;10264;53.178;5.840;2022-09-13T00:11:45;40.40;;;28.47;;
20209;SDS011;10264;53.178;5.840;2022-09-13T00:14:12;33.93;;;27.07;;
20209;SDS011;10264;53.178;5.840;2022-09-13T00:16:38;34.03;;;26.30;;
20209;SDS011;10264;53.178;5.840;2022-09-13T00:19:05;33.60;;;25.17;;
20209;SDS011;10264;53.178;5.840;2022-09-13T00:21:31;31.97;;;23.83;;
20209;SDS011;10264;53.178;5.840;2022-09-13T00:23:58;29.63;;;23.03;;
20209;SDS011;10264;53.178;5.840;2022-09-13T00:26:25;28.80;;;23.70;;
20209;SDS011;10264;53.178;5.840;2022-09-13T00:28:54;28.10;;;21.83;;
20209;SDS011;10264;53.178;5.840;2022-09-13T00:31:23;26.63;;;20.27;;
20209;SDS011;10264;53.178;5.840;2022-09-13T00:33:51;24.10;;;19.83;;
20209;SDS011;10264;53.178;5.840;2022-09-13T00:36:17;24.97;;;19.50;;
20209;SDS011;10264;53.178;5.840;2022-09-13T00:38:44;24.23;;;19.40;;
20209;SDS011;10264;53.178;5.840;2022-09-13T00:41:13;24.87;;;19.03;;
20209;SDS011;10264;53.178;5.840;2022-09-13T00:48:54;24.40;;;20.50;;
20209;SDS011;10264;53.178;5.840;2022-09-13T00:51:26;25.93;;;21.13;;
20209;SDS011;10264;53.178;5.840;2022-09-13T00:53:53;26.70;;;22.20;;
20209;SDS011;10264;53.178;5.840;2022-09-13T00:56:24;27.23;;;21.73;;
20209;SDS011;10264;53.178;5.840;2022-09-13T00:59:00;27.33;;;22.13;;
20209;SDS011;10264;53.178;5.840;2022-09-13T01:01:32;27.90;;;21.90;;
20209;SDS011;10264;53.178;5.840;2022-09-13T01:04:05;29.20;;;22.67;;
20209;SDS011;10264;53.178;5.840;2022-09-13T01:06:37;26.00;;;22.33;;
20209;SDS011;10264;53.178;5.840;2022-09-13T01:09:06;29.17;;;22.60;;
20209;SDS011;10264;53.178;5.840;2022-09-13T01:14:06;30.17;;;20.97;;
20209;SDS011;10264;53.178;5.840;2022-09-13T01:16:34;28.03;;;22.87;;
20209;SDS011;10264;53.178;5.840;2022-09-13T01:19:01;34.90;;;25.07;;
20209;SDS011;10264;53.178;5.840;2022-09-13T01:21:48;31.67;;;22.77;;
20209;SDS011;10264;53.178;5.840;2022-09-13T01:27:32;27.83;;;21.20;;
20209;SDS011;10264;53.178;5.840;2022-09-13T01:30:10;25.33;;;21.70;;
20209;SDS011;10264;53.178;5.840;2022-09-13T01:32:45;31.03;;;22.87;;
20209;SDS011;10264;53.178;5.840;2022-09-13T01:38:17;27.63;;;22.33;;
20209;SDS011;10264;53.178;5.840;2022-09-13T01:46:12;27.43;;;21.03;;
20209;SDS011;10264;53.178;5.840;2022-09-13T02:02:15;23.03;;;19.77;;
20209;SDS011;10264;53.178;5.840;2022-09-13T02:04:51;30.60;;;19.83;;
20209;SDS011;10264;53.178;5.840;2022-09-13T02:07:25;29.20;;;20.80;;
20209;SDS011;10264;53.178;5.840;2022-09-13T02:09:59;24.20;;;20.10;;
20209;SDS011;10264;53.178;5.840;2022-09-13T02:12:30;26.43;;;20.17;;
20209;SDS011;10264;53.178;5.840;2022-09-13T02:15:09;25.70;;;20.17;;
20209;SDS011;10264;53.178;5.840;2022-09-13T02:17:42;25.97;;;20.57;;
20209;SDS011;10264;53.178;5.840;2022-09-13T02:20:16;24.33;;;19.67;;
20209;SDS011;10264;53.178;5.840;2022-09-13T02:22:49;25.03;;;20.40;;
20209;SDS011;10264;53.178;5.840;2022-09-13T02:25:20;22.97;;;17.10;;
20209;SDS011;10264;53.178;5.840;2022-09-13T02:27:51;8.87;;;5.10;;
20209;SDS011;10264;53.178;5.840;2022-09-13T02:30:21;4.90;;;3.40;;
20209;SDS011;10264;53.178;5.840;2022-09-13T02:32:55;3.87;;;2.40;;
20209;SDS011;10264;53.178;5.840;2022-09-13T02:35:32;6.23;;;2.07;;
20209;SDS011;10264;53.178;5.840;2022-09-13T02:38:04;1.50;;;1.40;;
20209;SDS011;10264;53.178;5.840;2022-09-13T02:40:41;4.17;;;1.37;;
20209;SDS011;10264;53.178;5.840;2022-09-13T02:43:13;4.00;;;1.43;;
20209;SDS011;10264;53.178;5.840;2022-09-13T02:45:46;2.93;;;1.13;;
20209;SDS011;10264;53.178;5.840;2022-09-13T02:48:28;1.80;;;1.10;;
20209;SDS011;10264;53.178;5.840;2022-09-13T02:51:20;2.90;;;1.37;;
20209;SDS011;10264;53.178;5.840;2022-09-13T02:54:08;9.03;;;1.60;;
20209;SDS011;10264;53.178;5.840;2022-09-13T02:59:30;4.03;;;1.30;;
20209;SDS011;10264;53.178;5.840;2022-09-13T03:04:24;3.03;;;1.43;;
20209;SDS011;10264;53.178;5.840;2022-09-13T03:06:52;8.77;;;1.70;;
20209;SDS011;10264;53.178;5.840;2022-09-13T03:09:18;1.93;;;1.47;;
20209;SDS011;10264;53.178;5.840;2022-09-13T03:11:51;6.90;;;1.57;;
20209;SDS011;10264;53.178;5.840;2022-09-13T03:14:48;8.77;;;1.47;;
20209;SDS011;10264;53.178;5.840;2022-09-13T03:23:41;5.50;;;1.30;;
20209;SDS011;10264;53.178;5.840;2022-09-13T03:26:29;3.60;;;1.60;;
20209;SDS011;10264;53.178;5.840;2022-09-13T03:29:30;4.13;;;1.90;;
20209;SDS011;10264;53.178;5.840;2022-09-13T03:39:59;6.53;;;1.60;;
20209;SDS011;10264;53.178;5.840;2022-09-13T03:42:34;5.80;;;1.67;;
20209;SDS011;10264;53.178;5.840;2022-09-13T03:45:02;5.57;;;1.50;;
20209;SDS011;10264;53.178;5.840;2022-09-13T03:47:31;4.10;;;1.40;;
20209;SDS011;10264;53.178;5.840;2022-09-13T03:50:00;5.00;;;1.70;;
20209;SDS011;10264;53.178;5.840;2022-09-13T03:52:27;3.37;;;1.47;;
20209;SDS011;10264;53.178;5.840;2022-09-13T03:54:56;2.77;;;1.63;;
20209;SDS011;10264;53.178;5.840;2022-09-13T03:57:23;6.23;;;1.73;;
20209;SDS011;10264;53.178;5.840;2022-09-13T03:59:53;3.93;;;1.70;;
20209;SDS011;10264;53.178;5.840;2022-09-13T04:02:22;4.60;;;2.07;;
20209;SDS011;10264;53.178;5.840;2022-09-13T04:04:50;4.97;;;1.93;;
20209;SDS011;10264;53.178;5.840;2022-09-13T04:07:20;4.67;;;1.23;;
20209;SDS011;10264;53.178;5.840;2022-09-13T04:09:48;5.13;;;1.60;;
20209;SDS011;10264;53.178;5.840;2022-09-13T04:12:15;5.13;;;1.60;;
20209;SDS011;10264;53.178;5.840;2022-09-13T04:14:43;4.83;;;1.60;;
20209;SDS011;10264;53.178;5.840;2022-09-13T04:17:10;4.10;;;1.77;;
20209;SDS011;10264;53.178;5.840;2022-09-13T04:19:37;2.87;;;1.47;;
20209;SDS011;10264;53.178;5.840;2022-09-13T04:22:04;7.90;;;1.60;;
20209;SDS011;10264;53.178;5.840;2022-09-13T04:24:30;7.67;;;2.10;;
20209;SDS011;10264;53.178;5.840;2022-09-13T04:26:57;3.50;;;2.30;;
20209;SDS011;10264;53.178;5.840;2022-09-13T04:29:24;4.27;;;1.80;;
20209;SDS011;10264;53.178;5.840;2022-09-13T04:31:52;7.73;;;2.80;;
20209;SDS011;10264;53.178;5.840;2022-09-13T04:34:19;6.73;;;2.30;;
20209;SDS011;10264;53.178;5.840;2022-09-13T04:36:46;3.90;;;2.10;;
20209;SDS011;10264;53.178;5.840;2022-09-13T04:39:13;4.57;;;2.00;;
20209;SDS011;10264;53.178;5.840;2022-09-13T04:41:40;4.63;;;2.40;;
20209;SDS011;10264;53.178;5.840;2022-09-13T04:44:07;7.57;;;3.07;;
20209;SDS011;10264;53.178;5.840;2022-09-13T04:46:34;3.33;;;2.90;;
20209;SDS011;10264;53.178;5.840;2022-09-13T04:49:00;5.30;;;3.30;;
20209;SDS011;10264;53.178;5.840;2022-09-13T04:51:26;6.73;;;3.53;;
20209;SDS011;10264;53.178;5.840;2022-09-13T04:53:53;4.50;;;3.63;;
20209;SDS011;10264;53.178;5.840;2022-09-13T04:56:21;7.63;;;3.50;;
20209;SDS011;10264;53.178;5.840;2022-09-13T04:58:52;6.00;;;3.87;;
20209;SDS011;10264;53.178;5.840;2022-09-13T05:01:20;6.43;;;3.60;;
20209;SDS011;10264;53.178;5.840;2022-09-13T05:03:52;6.10;;;3.83;;
20209;SDS011;10264;53.178;5.840;2022-09-13T05:06:19;7.50;;;3.63;;
20209;SDS011;10264;53.178;5.840;2022-09-13T05:08:50;18.63;;;5.67;;
20209;SDS011;10264;53.178;5.840;2022-09-13T05:11:18;5.87;;;4.20;;
20209;SDS011;10264;53.178;5.840;2022-09-13T05:13:47;5.30;;;3.67;;
20209;SDS011;10264;53.178;5.840;2022-09-13T05:16:14;9.63;;;3.90;;
20209;SDS011;10264;53.178;5.840;2022-09-13T05:18:41;7.20;;;3.27;;
20209;SDS011;10264;53.178;5.840;2022-09-13T05:21:10;7.03;;;2.53;;
20209;SDS011;10264;53.178;5.840;2022-09-13T05:23:37;6.83;;;2.83;;
20209;SDS011;10264;53.178;5.840;2022-09-13T05:26:03;4.03;;;2.67;;
20209;SDS011;10264;53.178;5.840;2022-09-13T05:28:31;4.60;;;2.30;;
20209;SDS011;10264;53.178;5.840;2022-09-13T05:31:00;5.57;;;2.93;;
20209;SDS011;10264;53.178;5.840;2022-09-13T05:33:29;5.30;;;2.70;;
20209;SDS011;10264;53.178;5.840;2022-09-13T05:35:57;7.73;;;2.40;;
20209;SDS011;10264;53.178;5.840;2022-09-13T05:38:24;6.60;;;2.47;;
20209;SDS011;10264;53.178;5.840;2022-09-13T05:40:54;6.83;;;2.27;;
20209;SDS011;10264;53.178;5.840;2022-09-13T05:43:22;6.37;;;2.40;;
20209;SDS011;10264;53.178;5.840;2022-09-13T05:46:06;6.27;;;2.37;;
20209;SDS011;10264;53.178;5.840;2022-09-13T05:48:36;4.73;;;2.37;;
20209;SDS011;10264;53.178;5.840;2022-09-13T05:51:06;6.83;;;2.37;;
20209;SDS011;10264;53.178;5.840;2022-09-13T05:53:35;8.53;;;2.33;;
20209;SDS011;10264;53.178;5.840;2022-09-13T05:56:02;6.57;;;2.50;;
20209;SDS011;10264;53.178;5.840;2022-09-13T05:58:29;10.43;;;2.70;;
20209;SDS011;10264;53.178;5.840;2022-09-13T06:00:55;3.63;;;1.80;;
20209;SDS011;10264;53.178;5.840;2022-09-13T06:03:23;8.03;;;2.40;;
20209;SDS011;10264;53.178;5.840;2022-09-13T06:05:53;2.73;;;1.70;;
20209;SDS011;10264;53.178;5.840;2022-09-13T06:08:21;5.70;;;1.67;;
20209;SDS011;10264;53.178;5.840;2022-09-13T06:10:55;7.03;;;2.17;;
20209;SDS011;10264;53.178;5.840;2022-09-13T06:13:22;6.10;;;1.90;;
20209;SDS011;10264;53.178;5.840;2022-09-13T06:15:49;6.13;;;1.70;;
20209;SDS011;10264;53.178;5.840;2022-09-13T06:18:16;8.53;;;1.80;;
20209;SDS011;10264;53.178;5.840;2022-09-13T06:20:44;9.67;;;3.20;;
20209;SDS011;10264;53.178;5.840;2022-09-13T06:23:10;6.60;;;2.83;;
20209;SDS011;10264;53.178;5.840;2022-09-13T06:25:38;5.37;;;1.30;;
20209;SDS011;10264;53.178;5.840;2022-09-13T06:28:04;4.90;;;2.33;;
20209;SDS011;10264;53.178;5.840;2022-09-13T06:30:30;4.40;;;1.37;;
20209;SDS011;10264;53.178;5.840;2022-09-13T06:32:57;5.47;;;1.60;;
20209;SDS011;10264;53.178;5.840;2022-09-13T06:35:24;5.80;;;1.50;;
20209;SDS011;10264;53.178;5.840;2022-09-13T06:37:53;4.70;;;1.30;;
20209;SDS011;10264;53.178;5.840;2022-09-13T06:40:21;1.40;;;1.10;;
20209;SDS011;10264;53.178;5.840;2022-09-13T06:42:50;4.47;;;1.30;;
20209;SDS011;10264;53.178;5.840;2022-09-13T06:45:16;3.70;;;1.23;;
20209;SDS011;10264;53.178;5.840;2022-09-13T06:47:43;3.87;;;1.27;;
20209;SDS011;10264;53.178;5.840;2022-09-13T06:50:09;5.27;;;1.30;;
20209;SDS011;10264;53.178;5.840;2022-09-13T06:52:36;2.30;;;1.20;;
20209;SDS011;10264;53.178;5.840;2022-09-13T06:55:02;3.23;;;1.33;;
20209;SDS011;10264;53.178;5.840;2022-09-13T06:57:29;7.13;;;1.30;;
20209;SDS011;10264;53.178;5.840;2022-09-13T06:59:56;4.97;;;1.40;;
20209;SDS011;10264;53.178;5.840;2022-09-13T07:02:22;7.00;;;1.37;;
20209;SDS011;10264;53.178;5.840;2022-09-13T07:04:48;7.97;;;1.50;;
20209;SDS011;10264;53.178;5.840;2022-09-13T07:07:15;9.70;;;1.50;;
20209;SDS011;10264;53.178;5.840;2022-09-13T07:09:41;7.03;;;1.50;;
20209;SDS011;10264;53.178;5.840;2022-09-13T07:12:08;4.13;;;1.30;;
20209;SDS011;10264;53.178;5.840;2022-09-13T07:14:35;6.93;;;1.43;;
20209;SDS011;10264;53.178;5.840;2022-09-13T07:17:01;3.60;;;1.43;;
20209;SDS011;10264;53.178;5.840;2022-09-13T07:19:27;4.23;;;1.40;;
20209;SDS011;10264;53.178;5.840;2022-09-13T07:21:54;3.17;;;1.30;;
20209;SDS011;10264;53.178;5.840;2022-09-13T07:24:22;2.77;;;1.23;;
20209;SDS011;10264;53.178;5.840;2022-09-13T07:26:50;2.30;;;1.10;;
20209;SDS011;10264;53.178;5.840;2022-09-13T07:29:18;3.00;;;1.13;;
20209;SDS011;10264;53.178;5.840;2022-09-13T07:31:47;3.97;;;1.40;;
20209;SDS011;10264;53.178;5.840;2022-09-13T07:34:18;1.97;;;1.00;;
20209;SDS011;10264;53.178;5.840;2022-09-13T07:36:46;2.90;;;1.30;;
20209;SDS011;10264;53.178;5.840;2022-09-13T07:39:13;4.70;;;1.40;;
20209;SDS011;10264;53.178;5.840;2022-09-13T07:41:46;2.50;;;1.13;;
20209;SDS011;10264;53.178;5.840;2022-09-13T07:44:13;5.03;;;1.30;;
20209;SDS011;10264;53.178;5.840;2022-09-13T07:46:39;1.93;;;1.00;;
20209;SDS011;10264;53.178;5.840;2022-09-13T07:49:06;4.20;;;1.60;;
20209;SDS011;10264;53.178;5.840;2022-09-13T07:51:34;6.67;;;1.20;;
20209;SDS011;10264;53.178;5.840;2022-09-13T07:54:02;4.53;;;1.30;;
20209;SDS011;10264;53.178;5.840;2022-09-13T07:56:31;4.13;;;1.20;;
20209;SDS011;10264;53.178;5.840;2022-09-13T07:58:59;4.57;;;1.30;;
20209;SDS011;10264;53.178;5.840;2022-09-13T08:01:35;5.10;;;1.17;;
20209;SDS011;10264;53.178;5.840;2022-09-13T08:04:04;5.20;;;1.47;;
20209;SDS011;10264;53.178;5.840;2022-09-13T08:06:32;3.80;;;1.20;;
20209;SDS011;10264;53.178;5.840;2022-09-13T08:09:00;4.03;;;1.20;;
20209;SDS011;10264;53.178;5.840;2022-09-13T08:11:31;4.87;;;1.27;;
20209;SDS011;10264;53.178;5.840;2022-09-13T08:13:59;6.90;;;1.47;;
20209;SDS011;10264;53.178;5.840;2022-09-13T08:16:26;4.50;;;1.30;;
20209;SDS011;10264;53.178;5.840;2022-09-13T08:18:54;4.27;;;1.10;;
20209;SDS011;10264;53.178;5.840;2022-09-13T08:21:22;5.60;;;2.03;;
20209;SDS011;10264;53.178;5.840;2022-09-13T08:23:52;4.10;;;1.33;;
20209;SDS011;10264;53.178;5.840;2022-09-13T08:26:19;3.90;;;1.40;;
20209;SDS011;10264;53.178;5.840;2022-09-13T08:28:46;4.57;;;1.20;;
20209;SDS011;10264;53.178;5.840;2022-09-13T08:31:13;5.37;;;1.33;;
20209;SDS011;10264;53.178;5.840;2022-09-13T08:33:44;8.73;;;1.40;;
20209;SDS011;10264;53.178;5.840;2022-09-13T08:36:13;4.23;;;1.20;;
20209;SDS011;10264;53.178;5.840;2022-09-13T08:38:44;4.43;;;1.20;;
20209;SDS011;10264;53.178;5.840;2022-09-13T08:44:14;3.80;;;1.10;;
20209;SDS011;10264;53.178;5.840;2022-09-13T08:46:49;3.90;;;1.00;;
20209;SDS011;10264;53.178;5.840;2022-09-13T08:49:22;4.70;;;1.40;;
20209;SDS011;10264;53.178;5.840;2022-09-13T08:51:55;5.87;;;1.40;;
20209;SDS011;10264;53.178;5.840;2022-09-13T08:54:26;3.63;;;1.60;;
20209;SDS011;10264;53.178;5.840;2022-09-13T09:00:16;3.50;;;1.40;;
20209;SDS011;10264;53.178;5.840;2022-09-13T09:02:56;4.70;;;1.23;;
20209;SDS011;10264;53.178;5.840;2022-09-13T09:05:46;7.47;;;1.20;;
20209;SDS011;10264;53.178;5.840;2022-09-13T09:10:50;2.43;;;1.10;;
20209;SDS011;10264;53.178;5.840;2022-09-13T09:16:26;5.63;;;1.23;;
20209;SDS011;10264;53.178;5.840;2022-09-13T09:18:53;6.37;;;1.40;;
20209;SDS011;10264;53.178;5.840;2022-09-13T09:21:23;7.37;;;1.30;;
20209;SDS011;10264;53.178;5.840;2022-09-13T09:23:50;6.20;;;1.50;;
20209;SDS011;10264;53.178;5.840;2022-09-13T09:26:19;4.33;;;1.70;;
20209;SDS011;10264;53.178;5.840;2022-09-13T09:29:13;6.30;;;1.50;;
20209;SDS011;10264;53.178;5.840;2022-09-13T09:31:58;4.57;;;1.27;;
20209;SDS011;10264;53.178;5.840;2022-09-13T09:39:59;3.40;;;1.40;;
20209;SDS011;10264;53.178;5.840;2022-09-13T09:42:28;3.77;;;1.20;;
20209;SDS011;10264;53.178;5.840;2022-09-13T09:45:05;6.90;;;1.40;;
20209;SDS011;10264;53.178;5.840;2022-09-13T09:47:59;2.90;;;1.30;;
20209;SDS011;10264;53.178;5.840;2022-09-13T09:50:35;6.00;;;1.10;;
20209;SDS011;10264;53.178;5.840;2022-09-13T09:53:11;3.60;;;1.40;;
20209;SDS011;10264;53.178;5.840;2022-09-13T09:55:57;4.23;;;1.20;;
20209;SDS011;10264;53.178;5.840;2022-09-13T09:58:37;3.33;;;1.20;;
20209;SDS011;10264;53.178;5.840;2022-09-13T10:01:17;3.73;;;1.50;;
20209;SDS011;10264;53.178;5.840;2022-09-13T10:03:54;1.97;;;1.10;;
20209;SDS011;10264;53.178;5.840;2022-09-13T10:06:30;3.97;;;1.20;;
20209;SDS011;10264;53.178;5.840;2022-09-13T10:08:58;4.17;;;1.37;;
20209;SDS011;10264;53.178;5.840;2022-09-13T10:14:40;4.50;;;1.30;;
20209;SDS011;10264;53.178;5.840;2022-09-13T10:19:40;5.17;;;1.50;;
20209;SDS011;10264;53.178;5.840;2022-09-13T10:22:10;6.00;;;1.30;;
20209;SDS011;10264;53.178;5.840;2022-09-13T10:24:38;5.17;;;1.33;;
20209;SDS011;10264;53.178;5.840;2022-09-13T10:27:15;5.70;;;1.50;;
20209;SDS011;10264;53.178;5.840;2022-09-13T10:29:54;6.10;;;1.83;;
20209;SDS011;10264;53.178;5.840;2022-09-13T10:32:23;2.77;;;1.30;;
20209;SDS011;10264;53.178;5.840;2022-09-13T10:34:50;5.73;;;1.40;;
20209;SDS011;10264;53.178;5.840;2022-09-13T10:37:19;6.63;;;1.53;;
20209;SDS011;10264;53.178;5.840;2022-09-13T10:39:57;4.87;;;1.70;;
20209;SDS011;10264;53.178;5.840;2022-09-13T10:42:26;2.63;;;1.20;;
20209;SDS011;10264;53.178;5.840;2022-09-13T10:47:31;4.07;;;1.30;;
20209;SDS011;10264;53.178;5.840;2022-09-13T10:50:10;3.37;;;1.10;;
20209;SDS011;10264;53.178;5.840;2022-09-13T10:53:07;2.70;;;1.27;;
20209;SDS011;10264;53.178;5.840;2022-09-13T11:03:16;8.73;;;1.47;;
20209;SDS011;10264;53.178;5.840;2022-09-13T11:26:04;6.20;;;1.80;;
20209;SDS011;10264;53.178;5.840;2022-09-13T11:28:53;6.77;;;1.87;;
20209;SDS011;10264;53.178;5.840;2022-09-13T11:31:28;5.03;;;1.83;;
20209;SDS011;10264;53.178;5.840;2022-09-13T11:34:39;10.23;;;2.10;;
20209;SDS011;10264;53.178;5.840;2022-09-13T11:37:36;4.07;;;1.60;;
20209;SDS011;10264;53.178;5.840;2022-09-13T11:59:48;6.97;;;1.70;;
20209;SDS011;10264;53.178;5.840;2022-09-13T12:05:02;4.97;;;1.47;;
20209;SDS011;10264;53.178;5.840;2022-09-13T12:07:52;4.47;;;1.33;;
20209;SDS011;10264;53.178;5.840;2022-09-13T12:10:24;6.93;;;1.73;;
20209;SDS011;10264;53.178;5.840;2022-09-13T12:12:58;7.17;;;1.63;;
20209;SDS011;10264;53.178;5.840;2022-09-13T12:15:31;5.80;;;1.80;;
20209;SDS011;10264;53.178;5.840;2022-09-13T12:20:57;7.33;;;1.57;;
20209;SDS011;10264;53.178;5.840;2022-09-13T12:23:30;6.03;;;1.50;;
20209;SDS011;10264;53.178;5.840;2022-09-13T12:26:02;6.33;;;1.50;;
20209;SDS011;10264;53.178;5.840;2022-09-13T12:29:10;9.67;;;2.27;;
20209;SDS011;10264;53.178;5.840;2022-09-13T12:31:30;10.50;;;4.07;;
20209;SDS011;10264;53.178;5.840;2022-09-13T12:33:57;6.70;;;1.40;;
20209;SDS011;10264;53.178;5.840;2022-09-13T12:39:14;6.40;;;1.30;;
20209;SDS011;10264;53.178;5.840;2022-09-13T12:50:27;8.50;;;2.00;;
20209;SDS011;10264;53.178;5.840;2022-09-13T12:59:03;6.87;;;1.47;;
20209;SDS011;10264;53.178;5.840;2022-09-13T13:01:46;4.63;;;1.50;;
20209;SDS011;10264;53.178;5.840;2022-09-13T13:04:19;8.80;;;1.80;;
20209;SDS011;10264;53.178;5.840;2022-09-13T13:06:58;5.63;;;1.90;;
20209;SDS011;10264;53.178;5.840;2022-09-13T13:12:02;3.83;;;1.63;;
20209;SDS011;10264;53.178;5.840;2022-09-13T13:23:25;7.10;;;1.60;;
20209;SDS011;10264;53.178;5.840;2022-09-13T13:26:13;5.93;;;1.30;;
20209;SDS011;10264;53.178;5.840;2022-09-13T13:39:45;4.83;;;1.50;;
20209;SDS011;10264;53.178;5.840;2022-09-13T13:57:20;6.33;;;1.63;;
20209;SDS011;10264;53.178;5.840;2022-09-13T13:59:48;4.07;;;1.23;;
20209;SDS011;10264;53.178;5.840;2022-09-13T14:02:17;9.03;;;1.37;;
20209;SDS011;10264;53.178;5.840;2022-09-13T14:24:37;7.03;;;1.47;;
20209;SDS011;10264;53.178;5.840;2022-09-13T14:27:04;3.87;;;1.30;;
20209;SDS011;10264;53.178;5.840;2022-09-13T14:29:34;6.60;;;1.60;;
20209;SDS011;10264;53.178;5.840;2022-09-13T14:32:02;5.43;;;1.20;;
20209;SDS011;10264;53.178;5.840;2022-09-13T14:34:34;4.93;;;1.27;;
20209;SDS011;10264;53.178;5.840;2022-09-13T14:37:06;6.43;;;1.47;;
20209;SDS011;10264;53.178;5.840;2022-09-13T14:42:44;4.50;;;1.37;;
20209;SDS011;10264;53.178;5.840;2022-09-13T14:45:14;11.87;;;1.67;;
20209;SDS011;10264;53.178;5.840;2022-09-13T14:50:33;7.13;;;1.40;;
20209;SDS011;10264;53.178;5.840;2022-09-13T14:53:05;6.57;;;2.03;;
20209;SDS011;10264;53.178;5.840;2022-09-13T14:55:44;3.93;;;1.27;;
20209;SDS011;10264;53.178;5.840;2022-09-13T14:58:28;6.93;;;1.40;;
20209;SDS011;10264;53.178;5.840;2022-09-13T15:01:05;3.93;;;1.20;;
20209;SDS011;10264;53.178;5.840;2022-09-13T15:03:35;4.90;;;1.47;;
20209;SDS011;10264;53.178;5.840;2022-09-13T15:06:06;8.80;;;1.70;;
20209;SDS011;10264;53.178;5.840;2022-09-13T15:10:59;4.23;;;1.27;;
20209;SDS011;10264;53.178;5.840;2022-09-13T15:13:27;5.23;;;1.40;;
20209;SDS011;10264;53.178;5.840;2022-09-13T15:15:54;4.37;;;1.20;;
20209;SDS011;10264;53.178;5.840;2022-09-13T15:18:31;3.53;;;1.40;;
20209;SDS011;10264;53.178;5.840;2022-09-13T15:21:02;7.37;;;1.60;;
20209;SDS011;10264;53.178;5.840;2022-09-13T15:23:32;2.93;;;1.10;;
20209;SDS011;10264;53.178;5.840;2022-09-13T15:26:03;4.33;;;1.30;;
20209;SDS011;10264;53.178;5.840;2022-09-13T15:28:36;2.67;;;1.20;;
20209;SDS011;10264;53.178;5.840;2022-09-13T15:31:23;2.97;;;1.40;;
20209;SDS011;10264;53.178;5.840;2022-09-13T15:36:43;5.30;;;1.20;;
20209;SDS011;10264;53.178;5.840;2022-09-13T15:39:15;2.83;;;1.10;;
20209;SDS011;10264;53.178;5.840;2022-09-13T15:41:50;6.33;;;1.37;;
20209;SDS011;10264;53.178;5.840;2022-09-13T15:44:21;6.87;;;1.27;;
20209;SDS011;10264;53.178;5.840;2022-09-13T15:46:49;4.40;;;1.43;;
20209;SDS011;10264;53.178;5.840;2022-09-13T15:49:18;3.97;;;1.27;;
20209;SDS011;10264;53.178;5.840;2022-09-13T15:51:48;7.60;;;1.40;;
20209;SDS011;10264;53.178;5.840;2022-09-13T15:54:19;4.50;;;1.40;;
20209;SDS011;10264;53.178;5.840;2022-09-13T15:56:46;7.70;;;1.60;;
20209;SDS011;10264;53.178;5.840;2022-09-13T15:59:13;12.73;;;3.07;;
20209;SDS011;10264;53.178;5.840;2022-09-13T16:01:41;4.40;;;1.50;;
20209;SDS011;10264;53.178;5.840;2022-09-13T16:04:09;5.37;;;1.50;;
20209;SDS011;10264;53.178;5.840;2022-09-13T16:06:36;4.67;;;1.23;;
20209;SDS011;10264;53.178;5.840;2022-09-13T16:09:10;4.20;;;1.47;;
20209;SDS011;10264;53.178;5.840;2022-09-13T16:11:41;2.67;;;1.10;;
20209;SDS011;10264;53.178;5.840;2022-09-13T16:14:07;5.27;;;1.60;;
20209;SDS011;10264;53.178;5.840;2022-09-13T16:16:33;4.77;;;1.30;;
20209;SDS011;10264;53.178;5.840;2022-09-13T16:19:00;5.10;;;1.30;;
20209;SDS011;10264;53.178;5.840;2022-09-13T16:21:26;5.20;;;1.40;;
20209;SDS011;10264;53.178;5.840;2022-09-13T16:23:53;7.30;;;1.33;;
20209;SDS011;10264;53.178;5.840;2022-09-13T16:26:19;4.37;;;1.30;;
20209;SDS011;10264;53.178;5.840;2022-09-13T16:28:46;6.83;;;1.50;;
20209;SDS011;10264;53.178;5.840;2022-09-13T16:31:12;3.07;;;1.10;;
20209;SDS011;10264;53.178;5.840;2022-09-13T16:33:39;8.07;;;1.27;;
20209;SDS011;10264;53.178;5.840;2022-09-13T16:36:05;6.13;;;1.40;;
20209;SDS011;10264;53.178;5.840;2022-09-13T16:38:32;2.27;;;1.63;;
20209;SDS011;10264;53.178;5.840;2022-09-13T16:40:58;4.73;;;1.23;;
20209;SDS011;10264;53.178;5.840;2022-09-13T16:43:25;4.50;;;1.40;;
20209;SDS011;10264;53.178;5.840;2022-09-13T16:45:51;6.70;;;1.73;;
20209;SDS011;10264;53.178;5.840;2022-09-13T16:48:18;5.27;;;1.13;;
20209;SDS011;10264;53.178;5.840;2022-09-13T16:50:44;6.90;;;1.37;;
20209;SDS011;10264;53.178;5.840;2022-09-13T16:53:11;2.67;;;1.10;;
20209;SDS011;10264;53.178;5.840;2022-09-13T16:55:37;6.37;;;1.20;;
20209;SDS011;10264;53.178;5.840;2022-09-13T16:58:03;3.57;;;1.40;;
20209;SDS011;10264;53.178;5.840;2022-09-13T17:00:30;2.80;;;1.00;;
20209;SDS011;10264;53.178;5.840;2022-09-13T17:02:56;2.03;;;1.00;;
20209;SDS011;10264;53.178;5.840;2022-09-13T17:05:24;5.33;;;1.10;;
20209;SDS011;10264;53.178;5.840;2022-09-13T17:07:51;4.03;;;1.13;;
20209;SDS011;10264;53.178;5.840;2022-09-13T17:10:18;3.73;;;1.50;;
20209;SDS011;10264;53.178;5.840;2022-09-13T17:12:45;5.67;;;1.30;;
20209;SDS011;10264;53.178;5.840;2022-09-13T17:15:11;2.77;;;1.43;;
20209;SDS011;10264;53.178;5.840;2022-09-13T17:17:38;4.70;;;1.20;;
20209;SDS011;10264;53.178;5.840;2022-09-13T17:20:06;3.23;;;1.00;;
20209;SDS011;10264;53.178;5.840;2022-09-13T17:22:34;2.97;;;1.20;;
20209;SDS011;10264;53.178;5.840;2022-09-13T17:25:02;5.87;;;1.30;;
20209;SDS011;10264;53.178;5.840;2022-09-13T17:27:30;2.37;;;1.10;;
20209;SDS011;10264;53.178;5.840;2022-09-13T17:29:56;2.23;;;1.00;;
20209;SDS011;10264;53.178;5.840;2022-09-13T17:32:22;2.60;;;1.13;;
20209;SDS011;10264;53.178;5.840;2022-09-13T17:34:49;1.57;;;0.90;;
20209;SDS011;10264;53.178;5.840;2022-09-13T17:37:15;3.53;;;1.00;;
20209;SDS011;10264;53.178;5.840;2022-09-13T17:39:41;6.03;;;1.30;;
20209;SDS011;10264;53.178;5.840;2022-09-13T17:42:08;3.73;;;1.00;;
20209;SDS011;10264;53.178;5.840;2022-09-13T17:44:34;2.80;;;1.23;;
20209;SDS011;10264;53.178;5.840;2022-09-13T17:47:01;2.37;;;1.10;;
20209;SDS011;10264;53.178;5.840;2022-09-13T17:49:27;3.43;;;1.10;;
20209;SDS011;10264;53.178;5.840;2022-09-13T17:51:54;5.40;;;1.10;;
20209;SDS011;10264;53.178;5.840;2022-09-13T17:54:20;3.37;;;1.00;;
20209;SDS011;10264;53.178;5.840;2022-09-13T17:56:46;6.57;;;1.10;;
20209;SDS011;10264;53.178;5.840;2022-09-13T17:59:16;4.43;;;1.17;;
20209;SDS011;10264;53.178;5.840;2022-09-13T18:01:45;2.20;;;1.00;;
20209;SDS011;10264;53.178;5.840;2022-09-13T18:04:14;1.60;;;1.00;;
20209;SDS011;10264;53.178;5.840;2022-09-13T18:06:42;4.87;;;1.27;;
20209;SDS011;10264;53.178;5.840;2022-09-13T18:09:08;4.00;;;1.30;;
20209;SDS011;10264;53.178;5.840;2022-09-13T18:11:36;4.20;;;1.42;;
20209;SDS011;10264;53.178;5.840;2022-09-13T18:14:03;3.93;;;1.17;;
20209;SDS011;10264;53.178;5.840;2022-09-13T18:16:30;3.33;;;0.90;;
20209;SDS011;10264;53.178;5.840;2022-09-13T18:18:57;3.83;;;1.07;;
20209;SDS011;10264;53.178;5.840;2022-09-13T18:21:25;2.80;;;1.00;;
20209;SDS011;10264;53.178;5.840;2022-09-13T18:23:52;5.03;;;1.40;;
20209;SDS011;10264;53.178;5.840;2022-09-13T18:26:21;4.77;;;1.07;;
20209;SDS011;10264;53.178;5.840;2022-09-13T18:28:55;2.67;;;1.10;;
20209;SDS011;10264;53.178;5.840;2022-09-13T18:31:23;1.13;;;1.00;;
20209;SDS011;10264;53.178;5.840;2022-09-13T18:33:54;3.97;;;1.00;;
20209;SDS011;10264;53.178;5.840;2022-09-13T18:36:26;5.43;;;1.10;;
20209;SDS011;10264;53.178;5.840;2022-09-13T18:38:55;2.63;;;0.90;;
20209;SDS011;10264;53.178;5.840;2022-09-13T18:41:23;4.83;;;1.07;;